Feng Li Hai — VRQJ6 — position and weather

sailwx.info

Track history (hours):
 
Tides and Currents Weather Stations Pressure Air Temp Water Temp Dewpoint Dewpoint Depression Visibility Wind Speed Wind Dir Waves Ship Positions

Feng Li Hai

Last reported at 2017-Dec-01 01:34 UTC. Time now 2017-Dec-15 18:12 UTC.
Position N 54°15' W 131°04'.
Warning: this ship's position is 14 days out of date.

Length 200 m; draft 12.8 m.

Type: Cargo ship. MMSI: 477850200.

Date/timePositionNaut miles runAvg speedWind from/ knotsBaromVisibWave heightAir tempDewpointWater temp
2017-Dec-01 01:34N 54°15' W 131°04'212.9
2017-Dec-01 01:23N 54°13' W 131°03'513.0
2017-Dec-01 01:00N 54°08' W 131°02'612.8
2017-Dec-01 00:31N 54°02' W 131°01'612.5
2017-Dec-01 00:00N 53°56' W 131°01'612.1
2017-Nov-30 23:30N 53°50' W 130°60'611.9
2017-Nov-30 23:00N 53°44' W 130°59'468 9.8
2017-Nov-28 23:07N 46°54' W 125°04'111.1
2017-Nov-28 23:00N 46°53' W 125°03'611.0
2017-Nov-28 22:30N 46°48' W 124°58'611.3
2017-Nov-28 22:00N 46°44' W 124°54'611.6
2017-Nov-28 21:30N 46°39' W 124°49'611.5
2017-Nov-28 21:01N 46°34' W 124°44'611.5
2017-Nov-28 20:30N 46°30' W 124°39'611.3
2017-Nov-28 20:00N 46°25' W 124°34'610.9
2017-Nov-28 19:28N 46°20' W 124°29'510.7
2017-Nov-28 19:00N 46°16' W 124°25'510.3
2017-Nov-28 18:31N 46°12' W 124°22'4 8.6
2017-Nov-28 18:01N 46°10' W 124°16'5 9.9
2017-Nov-28 17:31N 46°12' W 124°10'5 9.1
2017-Nov-28 17:01N 46°15' W 124°05'5 9.5
2017-Nov-28 16:31N 46°14' W 123°59'5 9.3
2017-Nov-28 16:01N 46°12' W 123°53'9 9.3
2017-Nov-28 15:01N 46°15' W 123°40'510.6
2017-Nov-28 14:31N 46°16' W 123°33'5 9.3
2017-Nov-28 14:01N 46°15' W 123°26'510.8
2017-Nov-28 13:30N 46°09' W 123°24'611.8
2017-Nov-28 13:00N 46°09' W 123°15'612.3
2017-Nov-28 12:30N 46°11' W 123°07'612.8
2017-Nov-28 12:00N 46°07' W 122°59'611.5
2017-Nov-28 11:31N 46°04' W 122°53'611.6
2017-Nov-28 11:00N 45°58' W 122°50'612.1
2017-Nov-28 10:31N 45°53' W 122°48'611.7
2017-Nov-28 10:00N 45°47' W 122°46'611.9
2017-Nov-28 09:30N 45°41' W 122°47'4 8.6
2017-Nov-28 09:00N 45°38' W 122°42'0 0.5
2017-Nov-28 08:29N 45°38' W 122°42'0 0.0
2017-Nov-28 07:56N 45°38' W 122°42'0 0.1
2017-Nov-28 07:29N 45°38' W 122°42'0 0.1
2017-Nov-28 06:56N 45°38' W 122°42'0 0.0
2017-Nov-28 06:29N 45°38' W 122°42'0 0.0
2017-Nov-28 05:53N 45°38' W 122°42'0 0.1
2017-Nov-28 05:29N 45°38' W 122°42'0 0.0
2017-Nov-28 04:29N 45°38' W 122°42'0 0.0
2017-Nov-28 03:59N 45°38' W 122°42'0 0.0
2017-Nov-28 03:26N 45°38' W 122°42'0 0.0
2017-Nov-28 02:56N 45°38' W 122°42'0 0.1
2017-Nov-28 02:29N 45°38' W 122°42'0 0.1
2017-Nov-28 01:59N 45°38' W 122°42'0 0.0
2017-Nov-28 01:08N 45°38' W 122°42'0 0.0
2017-Nov-28 00:59N 45°38' W 122°42'0 0.0
2017-Nov-28 00:29N 45°38' W 122°42'0 0.0
2017-Nov-27 23:59N 45°38' W 122°42'0 0.0
2017-Nov-27 23:26N 45°38' W 122°42'0 0.1
2017-Nov-27 22:59N 45°38' W 122°42'0 0.0
2017-Nov-27 22:26N 45°38' W 122°42'0 0.1
2017-Nov-27 21:56N 45°38' W 122°42'0 0.0
2017-Nov-27 21:26N 45°38' W 122°42'0 0.0
2017-Nov-27 20:59N 45°38' W 122°42'0 0.0
2017-Nov-27 20:29N 45°38' W 122°42'0 0.0
2017-Nov-27 19:59N 45°38' W 122°42'0 0.1
2017-Nov-27 19:29N 45°38' W 122°42'0 0.1
2017-Nov-27 18:59N 45°38' W 122°42'0 0.0
2017-Nov-27 18:29N 45°38' W 122°42'0 0.1
2017-Nov-27 17:59N 45°38' W 122°42'0 0.1
2017-Nov-27 17:29N 45°38' W 122°42'0 0.0
2017-Nov-27 16:59N 45°38' W 122°42'0 0.0
2017-Nov-27 16:26N 45°38' W 122°42'0 0.0
2017-Nov-27 15:59N 45°38' W 122°42'0 0.0
2017-Nov-27 15:20N 45°38' W 122°42'0 0.0
2017-Nov-27 14:59N 45°38' W 122°42'0 0.0
2017-Nov-27 14:26N 45°38' W 122°42'0 0.0
2017-Nov-27 13:59N 45°38' W 122°42'0 0.0
2017-Nov-27 13:26N 45°38' W 122°42'0 0.0
2017-Nov-27 12:59N 45°38' W 122°42'0 0.0
2017-Nov-27 12:29N 45°38' W 122°42'0 0.0
2017-Nov-27 11:56N 45°38' W 122°42'0 0.0
2017-Nov-27 11:29N 45°38' W 122°42'0 0.0
2017-Nov-27 10:50N 45°38' W 122°42'0 0.0
2017-Nov-27 10:29N 45°38' W 122°42'0 0.0
2017-Nov-27 09:56N 45°38' W 122°42'0 0.0
2017-Nov-27 09:29N 45°38' W 122°42'0 0.0
2017-Nov-27 08:56N 45°38' W 122°42'0 0.0
2017-Nov-27 08:29N 45°38' W 122°42'0 0.0
2017-Nov-27 07:59N 45°38' W 122°42'0 0.0
2017-Nov-27 07:29N 45°38' W 122°42'0 0.0
2017-Nov-27 06:59N 45°38' W 122°42'0 0.0
2017-Nov-27 06:26N 45°38' W 122°42'0 0.0
2017-Nov-27 05:59N 45°38' W 122°42'0 0.0
2017-Nov-27 05:29N 45°38' W 122°42'0 0.0
2017-Nov-27 04:59N 45°38' W 122°42'0 0.0
2017-Nov-27 04:29N 45°38' W 122°42'0 0.0
2017-Nov-27 03:56N 45°38' W 122°42'0 0.0
2017-Nov-27 03:26N 45°38' W 122°42'0 0.0
2017-Nov-27 02:59N 45°38' W 122°42'0 0.0
2017-Nov-27 02:29N 45°38' W 122°42'0 0.0
2017-Nov-27 01:59N 45°38' W 122°42'0 0.0
2017-Nov-27 01:29N 45°38' W 122°42'0 0.0
2017-Nov-27 00:59N 45°38' W 122°42'0 0.0
2017-Nov-27 00:29N 45°38' W 122°42'0 0.0
2017-Nov-26 23:59N 45°38' W 122°42'0 0.0
2017-Nov-26 23:26N 45°38' W 122°42'0 0.0
2017-Nov-26 22:56N 45°38' W 122°42'0 0.0
2017-Nov-26 22:29N 45°38' W 122°42'0 0.0
2017-Nov-26 21:50N 45°38' W 122°42'0 0.0
2017-Nov-26 21:29N 45°38' W 122°42'0 0.0
2017-Nov-26 20:47N 45°38' W 122°42'0 0.0
2017-Nov-26 20:17N 45°38' W 122°42'0 0.0
2017-Nov-26 19:53N 45°38' W 122°42'0 0.0
2017-Nov-26 19:29N 45°38' W 122°42'0 0.0
2017-Nov-26 18:59N 45°38' W 122°42'0 0.0
2017-Nov-26 18:26N 45°38' W 122°42'0 0.0
2017-Nov-26 17:59N 45°38' W 122°42'0 0.0
2017-Nov-26 17:29N 45°38' W 122°42'0 0.0
2017-Nov-26 16:59N 45°38' W 122°42'0 0.0
2017-Nov-26 16:29N 45°38' W 122°42'0 0.0
2017-Nov-26 15:59N 45°38' W 122°42'0 0.0
2017-Nov-26 15:26N 45°38' W 122°42'0 0.0
2017-Nov-26 14:56N 45°38' W 122°42'0 0.0
2017-Nov-26 12:03N 45°38' W 122°42'0 0.0
2017-Nov-26 11:53N 45°38' W 122°42'0 0.0
2017-Nov-26 11:30N 45°38' W 122°42'0 0.0
2017-Nov-26 10:41N 45°38' W 122°42'0 0.0
2017-Nov-26 10:30N 45°38' W 122°42'0 0.0
2017-Nov-26 07:51N 45°38' W 122°42'0 0.0
2017-Nov-26 07:24N 45°38' W 122°42'0 0.0
2017-Nov-26 06:57N 45°38' W 122°42'0 0.0
2017-Nov-26 06:30N 45°38' W 122°42'0 0.0
2017-Nov-26 05:54N 45°38' W 122°42'0 0.0
2017-Nov-26 05:30N 45°38' W 122°42'0 0.0
2017-Nov-26 05:00N 45°38' W 122°42'0 0.0
2017-Nov-26 04:30N 45°38' W 122°42'0 0.0
2017-Nov-26 04:00N 45°38' W 122°42'0 0.0
2017-Nov-26 03:30N 45°38' W 122°42'0 0.0
2017-Nov-26 02:51N 45°38' W 122°42'0 0.0
2017-Nov-26 02:30N 45°38' W 122°42'0 0.0
2017-Nov-26 02:00N 45°38' W 122°42'0 0.0
2017-Nov-26 01:30N 45°38' W 122°42'0 0.0
2017-Nov-26 00:54N 45°38' W 122°42'0 0.0
2017-Nov-26 00:27N 45°38' W 122°42'0 0.0
2017-Nov-25 23:42N 45°38' W 122°42'0 0.0
2017-Nov-25 23:30N 45°38' W 122°42'0 0.0
2017-Nov-25 23:00N 45°38' W 122°42'0 0.0
2017-Nov-25 22:30N 45°38' W 122°42'0 0.0
2017-Nov-25 21:57N 45°38' W 122°42'0 0.0
2017-Nov-25 21:27N 45°38' W 122°42'0 0.0
2017-Nov-25 21:00N 45°38' W 122°42'0 0.0
2017-Nov-25 20:30N 45°38' W 122°42'0 0.1
2017-Nov-25 20:00N 45°38' W 122°42'2 3.3
2017-Nov-25 19:30N 45°39' W 122°44'0 0.8
2017-Nov-25 18:58N 45°39' W 122°44'0 0.0
2017-Nov-25 18:28N 45°39' W 122°44'0 0.1
2017-Nov-25 17:58N 45°39' W 122°44'0 0.0
2017-Nov-25 17:26N 45°39' W 122°44'2 3.6
2017-Nov-25 17:00N 45°40' W 122°46'510.6
2017-Nov-25 16:30N 45°45' W 122°46'510.8
2017-Nov-25 16:00N 45°50' W 122°47'510.8
2017-Nov-25 15:30N 45°56' W 122°48'510.8
2017-Nov-25 15:00N 46°01' W 122°51'510.6
2017-Nov-25 14:30N 46°05' W 122°55'5 9.9
2017-Nov-25 14:00N 46°08' W 123°01'611.7
2017-Nov-25 13:31N 46°11' W 123°08'611.3
2017-Nov-25 13:00N 46°09' W 123°15'611.4
2017-Nov-25 12:30N 46°09' W 123°24'611.3
2017-Nov-25 12:00N 46°15' W 123°26'611.1
2017-Nov-25 11:30N 46°15' W 123°34'612.5
2017-Nov-25 11:00N 46°14' W 123°43'4 8.2
2017-Nov-25 10:29N 46°12' W 123°49'0 0.1
2017-Nov-25 09:59N 46°12' W 123°49'0 0.1
2017-Nov-25 09:29N 46°12' W 123°49'0 0.1
2017-Nov-25 08:59N 46°12' W 123°49'0 0.1
2017-Nov-25 08:29N 46°12' W 123°49'0 0.0
2017-Nov-25 07:56N 46°12' W 123°49'0 0.0
2017-Nov-25 07:26N 46°12' W 123°49'0 0.0
2017-Nov-25 06:59N 46°12' W 123°49'0 0.0
2017-Nov-25 06:14N 46°12' W 123°49'0 0.0
2017-Nov-25 05:56N 46°12' W 123°49'0 0.0
2017-Nov-25 05:29N 46°12' W 123°49'0 0.0
2017-Nov-25 04:59N 46°12' W 123°49'0 0.0
2017-Nov-25 04:29N 46°12' W 123°49'0 0.0
2017-Nov-25 03:47N 46°12' W 123°49'0 0.0
2017-Nov-25 03:29N 46°12' W 123°49'0 0.0
2017-Nov-25 02:59N 46°12' W 123°49'0 0.0
2017-Nov-25 02:29N 46°12' W 123°49'0 0.0
2017-Nov-25 01:59N 46°12' W 123°49'0 0.0
2017-Nov-25 01:29N 46°12' W 123°49'0 0.1
2017-Nov-25 00:38N 46°12' W 123°49'0 0.2
2017-Nov-25 00:29N 46°12' W 123°49'0 0.3
2017-Nov-24 23:59N 46°12' W 123°48'0 0.0
2017-Nov-24 23:29N 46°12' W 123°48'0 0.1
2017-Nov-24 22:59N 46°12' W 123°48'0 0.0
2017-Nov-24 22:29N 46°12' W 123°48'0 0.1
2017-Nov-24 21:56N 46°12' W 123°48'0 0.0
2017-Nov-24 21:29N 46°12' W 123°48'0 0.0
2017-Nov-24 20:59N 46°12' W 123°48'0 0.2
2017-Nov-24 20:29N 46°12' W 123°49'0 0.1
2017-Nov-24 19:59N 46°12' W 123°49'0 0.1
2017-Nov-24 19:29N 46°12' W 123°49'0 0.1
2017-Nov-24 18:59N 46°12' W 123°49'0 0.0
2017-Nov-24 18:29N 46°12' W 123°49'0 0.0
2017-Nov-24 17:59N 46°12' W 123°49'0 0.0
2017-Nov-24 17:29N 46°12' W 123°49'0 0.0
2017-Nov-24 16:59N 46°12' W 123°49'0 0.0
2017-Nov-24 16:29N 46°12' W 123°49'0 0.0
2017-Nov-24 15:59N 46°12' W 123°49'0 0.0
2017-Nov-24 14:53N 46°12' W 123°49'0 0.0
2017-Nov-24 14:29N 46°12' W 123°49'0 0.2
2017-Nov-24 13:59N 46°12' W 123°49'0 0.2
2017-Nov-24 13:26N 46°12' W 123°48'0 0.1
2017-Nov-24 12:59N 46°12' W 123°48'0 0.1
2017-Nov-24 12:29N 46°12' W 123°48'0 0.0
2017-Nov-24 11:59N 46°12' W 123°48'0 0.1
2017-Nov-24 11:29N 46°12' W 123°48'0 0.0
2017-Nov-24 10:59N 46°12' W 123°48'0 0.0
2017-Nov-24 10:29N 46°12' W 123°48'0 0.0
2017-Nov-24 09:59N 46°12' W 123°48'0 0.0
2017-Nov-24 09:29N 46°12' W 123°48'0 0.2
2017-Nov-24 08:59N 46°12' W 123°48'0 0.1
2017-Nov-24 08:20N 46°12' W 123°48'0 0.1
2017-Nov-24 07:59N 46°12' W 123°49'0 0.1
2017-Nov-24 07:29N 46°12' W 123°49'0 0.1
2017-Nov-24 06:59N 46°12' W 123°49'0 0.1
2017-Nov-24 06:29N 46°12' W 123°49'0 0.1
2017-Nov-24 05:56N 46°12' W 123°49'0 0.1
2017-Nov-24 05:29N 46°12' W 123°49'0 0.0
2017-Nov-24 04:56N 46°12' W 123°49'0 0.0
2017-Nov-24 04:29N 46°12' W 123°49'0 0.0
2017-Nov-24 03:50N 46°12' W 123°49'0 0.0
2017-Nov-24 03:29N 46°12' W 123°49'0 0.1
2017-Nov-24 02:47N 46°12' W 123°49'0 0.0
2017-Nov-24 02:29N 46°12' W 123°49'0 0.0
2017-Nov-24 01:59N 46°12' W 123°49'0 0.0
2017-Nov-24 01:29N 46°12' W 123°49'0 0.0
2017-Nov-24 00:59N 46°12' W 123°49'0 0.3
2017-Nov-24 00:29N 46°12' W 123°48'0 0.3
2017-Nov-23 23:59N 46°12' W 123°48'0 0.0
2017-Nov-23 23:26N 46°12' W 123°48'0 0.1
2017-Nov-23 22:41N 46°12' W 123°48'0 0.0
2017-Nov-23 22:29N 46°12' W 123°48'0 0.1
2017-Nov-23 21:59N 46°12' W 123°48'0 0.0
2017-Nov-23 21:29N 46°12' W 123°48'0 0.0
2017-Nov-23 20:59N 46°12' W 123°48'0 0.0
2017-Nov-23 20:29N 46°12' W 123°48'0 0.0
2017-Nov-23 19:56N 46°12' W 123°48'0 0.0
2017-Nov-23 19:29N 46°12' W 123°48'0 0.2
2017-Nov-23 18:56N 46°12' W 123°48'0 0.2
2017-Nov-23 18:29N 46°12' W 123°49'0 0.1
2017-Nov-23 17:56N 46°12' W 123°49'0 0.1
2017-Nov-23 17:29N 46°12' W 123°49'0 0.1
2017-Nov-23 16:59N 46°12' W 123°49'0 0.0
2017-Nov-23 16:29N 46°12' W 123°49'0 0.1
2017-Nov-23 15:56N 46°12' W 123°49'0 0.1
2017-Nov-23 15:29N 46°12' W 123°49'0 0.1
2017-Nov-23 14:59N 46°12' W 123°49'0 0.0
2017-Nov-23 14:29N 46°12' W 123°49'0 0.0
2017-Nov-23 13:59N 46°12' W 123°49'0 0.2
2017-Nov-23 13:29N 46°12' W 123°48'0 0.2
2017-Nov-23 12:59N 46°12' W 123°48'0 0.0
2017-Nov-23 12:29N 46°12' W 123°48'0 0.0
2017-Nov-23 11:59N 46°12' W 123°48'0 0.0
2017-Nov-23 11:29N 46°12' W 123°48'0 0.0
2017-Nov-23 10:59N 46°12' W 123°48'0 0.0
2017-Nov-23 10:29N 46°12' W 123°48'0 0.0
2017-Nov-23 09:59N 46°12' W 123°48'0 0.0
2017-Nov-23 09:29N 46°12' W 123°48'0 0.0
2017-Nov-23 08:59N 46°12' W 123°48'0 0.0
2017-Nov-23 08:29N 46°12' W 123°48'0 0.0
2017-Nov-23 07:59N 46°12' W 123°48'0 0.1
2017-Nov-23 07:29N 46°12' W 123°48'0 0.2
2017-Nov-23 06:56N 46°12' W 123°48'0 0.2
2017-Nov-23 06:26N 46°12' W 123°49'0 0.1
2017-Nov-23 05:53N 46°12' W 123°49'0 0.0
2017-Nov-23 05:29N 46°12' W 123°49'0 0.0
2017-Nov-23 04:59N 46°12' W 123°49'0 0.0
2017-Nov-23 04:29N 46°12' W 123°49'0 0.1
2017-Nov-23 03:59N 46°12' W 123°49'0 0.0
2017-Nov-23 03:29N 46°12' W 123°49'0 0.0
2017-Nov-23 02:59N 46°12' W 123°49'0 0.1
2017-Nov-23 02:29N 46°12' W 123°49'0 0.1
2017-Nov-23 01:59N 46°12' W 123°49'1 1.4
2017-Nov-23 01:30N 46°12' W 123°49'4 7.9
2017-Nov-23 01:00N 46°11' W 123°55'510.7
2017-Nov-23 00:30N 46°15' W 124°01'510.5
2017-Nov-23 00:00N 46°14' W 124°08'7 8.7
2017-Nov-22 23:12N 46°13' W 124°18'2 7.6
2017-Nov-22 23:01N 46°14' W 124°19'3 6.1
2017-Nov-22 22:30N 46°17' W 124°22'2 4.9
2017-Nov-22 22:01N 46°19' W 124°23'2 3.8
2017-Nov-22 21:31N 46°21' W 124°22'3 4.4
2017-Nov-22 20:48N 46°19' W 124°25'1 4.1
2017-Nov-22 20:30N 46°18' W 124°27'2 3.9
2017-Nov-22 20:01N 46°16' W 124°28'2 3.9
2017-Nov-22 19:31N 46°15' W 124°30'  
Track history (hours):
 
Tides and Currents Weather Stations Pressure Air Temp Water Temp Dewpoint Dewpoint Depression Visibility Wind Speed Wind Dir Waves Ship Positions

Feng Li Hai

Last reported at 2017-Dec-01 01:34 UTC. Time now 2017-Dec-15 18:12 UTC.
Position N 54°15' W 131°04'.
Warning: this ship's position is 14 days out of date.

Length 200 m; draft 12.8 m.

Type: Cargo ship. MMSI: 477850200.

Date/timePositionNaut miles runAvg speedWind from/ knotsBaromVisibWave heightAir tempDewpointWater temp
2017-Dec-01 01:34N 54°15' W 131°04'212.9
2017-Dec-01 01:23N 54°13' W 131°03'513.0
2017-Dec-01 01:00N 54°08' W 131°02'612.8
2017-Dec-01 00:31N 54°02' W 131°01'612.5
2017-Dec-01 00:00N 53°56' W 131°01'612.1
2017-Nov-30 23:30N 53°50' W 130°60'611.9
2017-Nov-30 23:00N 53°44' W 130°59'468 9.8
2017-Nov-28 23:07N 46°54' W 125°04'111.1
2017-Nov-28 23:00N 46°53' W 125°03'611.0
2017-Nov-28 22:30N 46°48' W 124°58'611.3
2017-Nov-28 22:00N 46°44' W 124°54'611.6
2017-Nov-28 21:30N 46°39' W 124°49'611.5
2017-Nov-28 21:01N 46°34' W 124°44'611.5
2017-Nov-28 20:30N 46°30' W 124°39'611.3
2017-Nov-28 20:00N 46°25' W 124°34'610.9
2017-Nov-28 19:28N 46°20' W 124°29'510.7
2017-Nov-28 19:00N 46°16' W 124°25'510.3
2017-Nov-28 18:31N 46°12' W 124°22'4 8.6
2017-Nov-28 18:01N 46°10' W 124°16'5 9.9
2017-Nov-28 17:31N 46°12' W 124°10'5 9.1
2017-Nov-28 17:01N 46°15' W 124°05'5 9.5
2017-Nov-28 16:31N 46°14' W 123°59'5 9.3
2017-Nov-28 16:01N 46°12' W 123°53'9 9.3
2017-Nov-28 15:01N 46°15' W 123°40'510.6
2017-Nov-28 14:31N 46°16' W 123°33'5 9.3
2017-Nov-28 14:01N 46°15' W 123°26'510.8
2017-Nov-28 13:30N 46°09' W 123°24'611.8
2017-Nov-28 13:00N 46°09' W 123°15'612.3
2017-Nov-28 12:30N 46°11' W 123°07'612.8
2017-Nov-28 12:00N 46°07' W 122°59'611.5
2017-Nov-28 11:31N 46°04' W 122°53'611.6
2017-Nov-28 11:00N 45°58' W 122°50'612.1
2017-Nov-28 10:31N 45°53' W 122°48'611.7
2017-Nov-28 10:00N 45°47' W 122°46'611.9
2017-Nov-28 09:30N 45°41' W 122°47'4 8.6
2017-Nov-28 09:00N 45°38' W 122°42'0 0.5
2017-Nov-28 08:29N 45°38' W 122°42'0 0.0
2017-Nov-28 07:56N 45°38' W 122°42'0 0.1
2017-Nov-28 07:29N 45°38' W 122°42'0 0.1
2017-Nov-28 06:56N 45°38' W 122°42'0 0.0
2017-Nov-28 06:29N 45°38' W 122°42'0 0.0
2017-Nov-28 05:53N 45°38' W 122°42'0 0.1
2017-Nov-28 05:29N 45°38' W 122°42'0 0.0
2017-Nov-28 04:29N 45°38' W 122°42'0 0.0
2017-Nov-28 03:59N 45°38' W 122°42'0 0.0
2017-Nov-28 03:26N 45°38' W 122°42'0 0.0
2017-Nov-28 02:56N 45°38' W 122°42'0 0.1
2017-Nov-28 02:29N 45°38' W 122°42'0 0.1
2017-Nov-28 01:59N 45°38' W 122°42'0 0.0
2017-Nov-28 01:08N 45°38' W 122°42'0 0.0
2017-Nov-28 00:59N 45°38' W 122°42'0 0.0
2017-Nov-28 00:29N 45°38' W 122°42'0 0.0
2017-Nov-27 23:59N 45°38' W 122°42'0 0.0
2017-Nov-27 23:26N 45°38' W 122°42'0 0.1
2017-Nov-27 22:59N 45°38' W 122°42'0 0.0
2017-Nov-27 22:26N 45°38' W 122°42'0 0.1
2017-Nov-27 21:56N 45°38' W 122°42'0 0.0
2017-Nov-27 21:26N 45°38' W 122°42'0 0.0
2017-Nov-27 20:59N 45°38' W 122°42'0 0.0
2017-Nov-27 20:29N 45°38' W 122°42'0 0.0
2017-Nov-27 19:59N 45°38' W 122°42'0 0.1
2017-Nov-27 19:29N 45°38' W 122°42'0 0.1
2017-Nov-27 18:59N 45°38' W 122°42'0 0.0
2017-Nov-27 18:29N 45°38' W 122°42'0 0.1
2017-Nov-27 17:59N 45°38' W 122°42'0 0.1
2017-Nov-27 17:29N 45°38' W 122°42'0 0.0
2017-Nov-27 16:59N 45°38' W 122°42'0 0.0
2017-Nov-27 16:26N 45°38' W 122°42'0 0.0
2017-Nov-27 15:59N 45°38' W 122°42'0 0.0
2017-Nov-27 15:20N 45°38' W 122°42'0 0.0
2017-Nov-27 14:59N 45°38' W 122°42'0 0.0
2017-Nov-27 14:26N 45°38' W 122°42'0 0.0
2017-Nov-27 13:59N 45°38' W 122°42'0 0.0
2017-Nov-27 13:26N 45°38' W 122°42'0 0.0
2017-Nov-27 12:59N 45°38' W 122°42'0 0.0
2017-Nov-27 12:29N 45°38' W 122°42'0 0.0
2017-Nov-27 11:56N 45°38' W 122°42'0 0.0
2017-Nov-27 11:29N 45°38' W 122°42'0 0.0
2017-Nov-27 10:50N 45°38' W 122°42'0 0.0
2017-Nov-27 10:29N 45°38' W 122°42'0 0.0
2017-Nov-27 09:56N 45°38' W 122°42'0 0.0
2017-Nov-27 09:29N 45°38' W 122°42'0 0.0
2017-Nov-27 08:56N 45°38' W 122°42'0 0.0
2017-Nov-27 08:29N 45°38' W 122°42'0 0.0
2017-Nov-27 07:59N 45°38' W 122°42'0 0.0
2017-Nov-27 07:29N 45°38' W 122°42'0 0.0
2017-Nov-27 06:59N 45°38' W 122°42'0 0.0
2017-Nov-27 06:26N 45°38' W 122°42'0 0.0
2017-Nov-27 05:59N 45°38' W 122°42'0 0.0
2017-Nov-27 05:29N 45°38' W 122°42'0 0.0
2017-Nov-27 04:59N 45°38' W 122°42'0 0.0
2017-Nov-27 04:29N 45°38' W 122°42'0 0.0
2017-Nov-27 03:56N 45°38' W 122°42'0 0.0
2017-Nov-27 03:26N 45°38' W 122°42'0 0.0
2017-Nov-27 02:59N 45°38' W 122°42'0 0.0
2017-Nov-27 02:29N 45°38' W 122°42'0 0.0
2017-Nov-27 01:59N 45°38' W 122°42'0 0.0
2017-Nov-27 01:29N 45°38' W 122°42'0 0.0
2017-Nov-27 00:59N 45°38' W 122°42'0 0.0
2017-Nov-27 00:29N 45°38' W 122°42'0 0.0
2017-Nov-26 23:59N 45°38' W 122°42'0 0.0
2017-Nov-26 23:26N 45°38' W 122°42'0 0.0
2017-Nov-26 22:56N 45°38' W 122°42'0 0.0
2017-Nov-26 22:29N 45°38' W 122°42'0 0.0
2017-Nov-26 21:50N 45°38' W 122°42'0 0.0
2017-Nov-26 21:29N 45°38' W 122°42'0 0.0
2017-Nov-26 20:47N 45°38' W 122°42'0 0.0
2017-Nov-26 20:17N 45°38' W 122°42'0 0.0
2017-Nov-26 19:53N 45°38' W 122°42'0 0.0
2017-Nov-26 19:29N 45°38' W 122°42'0 0.0
2017-Nov-26 18:59N 45°38' W 122°42'0 0.0
2017-Nov-26 18:26N 45°38' W 122°42'0 0.0
2017-Nov-26 17:59N 45°38' W 122°42'0 0.0
2017-Nov-26 17:29N 45°38' W 122°42'0 0.0
2017-Nov-26 16:59N 45°38' W 122°42'0 0.0
2017-Nov-26 16:29N 45°38' W 122°42'0 0.0
2017-Nov-26 15:59N 45°38' W 122°42'0 0.0
2017-Nov-26 15:26N 45°38' W 122°42'0 0.0
2017-Nov-26 14:56N 45°38' W 122°42'0 0.0
2017-Nov-26 12:03N 45°38' W 122°42'0 0.0
2017-Nov-26 11:53N 45°38' W 122°42'0 0.0
2017-Nov-26 11:30N 45°38' W 122°42'0 0.0
2017-Nov-26 10:41N 45°38' W 122°42'0 0.0
2017-Nov-26 10:30N 45°38' W 122°42'0 0.0
2017-Nov-26 07:51N 45°38' W 122°42'0 0.0
2017-Nov-26 07:24N 45°38' W 122°42'0 0.0
2017-Nov-26 06:57N 45°38' W 122°42'0 0.0
2017-Nov-26 06:30N 45°38' W 122°42'0 0.0
2017-Nov-26 05:54N 45°38' W 122°42'0 0.0
2017-Nov-26 05:30N 45°38' W 122°42'0 0.0
2017-Nov-26 05:00N 45°38' W 122°42'0 0.0
2017-Nov-26 04:30N 45°38' W 122°42'0 0.0
2017-Nov-26 04:00N 45°38' W 122°42'0 0.0
2017-Nov-26 03:30N 45°38' W 122°42'0 0.0
2017-Nov-26 02:51N 45°38' W 122°42'0 0.0
2017-Nov-26 02:30N 45°38' W 122°42'0 0.0
2017-Nov-26 02:00N 45°38' W 122°42'0 0.0
2017-Nov-26 01:30N 45°38' W 122°42'0 0.0
2017-Nov-26 00:54N 45°38' W 122°42'0 0.0
2017-Nov-26 00:27N 45°38' W 122°42'0 0.0
2017-Nov-25 23:42N 45°38' W 122°42'0 0.0
2017-Nov-25 23:30N 45°38' W 122°42'0 0.0
2017-Nov-25 23:00N 45°38' W 122°42'0 0.0
2017-Nov-25 22:30N 45°38' W 122°42'0 0.0
2017-Nov-25 21:57N 45°38' W 122°42'0 0.0
2017-Nov-25 21:27N 45°38' W 122°42'0 0.0
2017-Nov-25 21:00N 45°38' W 122°42'0 0.0
2017-Nov-25 20:30N 45°38' W 122°42'0 0.1
2017-Nov-25 20:00N 45°38' W 122°42'2 3.3
2017-Nov-25 19:30N 45°39' W 122°44'0 0.8
2017-Nov-25 18:58N 45°39' W 122°44'0 0.0
2017-Nov-25 18:28N 45°39' W 122°44'0 0.1
2017-Nov-25 17:58N 45°39' W 122°44'0 0.0
2017-Nov-25 17:26N 45°39' W 122°44'2 3.6
2017-Nov-25 17:00N 45°40' W 122°46'510.6
2017-Nov-25 16:30N 45°45' W 122°46'510.8
2017-Nov-25 16:00N 45°50' W 122°47'510.8
2017-Nov-25 15:30N 45°56' W 122°48'510.8
2017-Nov-25 15:00N 46°01' W 122°51'510.6
2017-Nov-25 14:30N 46°05' W 122°55'5 9.9
2017-Nov-25 14:00N 46°08' W 123°01'611.7
2017-Nov-25 13:31N 46°11' W 123°08'611.3
2017-Nov-25 13:00N 46°09' W 123°15'611.4
2017-Nov-25 12:30N 46°09' W 123°24'611.3
2017-Nov-25 12:00N 46°15' W 123°26'611.1
2017-Nov-25 11:30N 46°15' W 123°34'612.5
2017-Nov-25 11:00N 46°14' W 123°43'4 8.2
2017-Nov-25 10:29N 46°12' W 123°49'0 0.1
2017-Nov-25 09:59N 46°12' W 123°49'0 0.1
2017-Nov-25 09:29N 46°12' W 123°49'0 0.1
2017-Nov-25 08:59N 46°12' W 123°49'0 0.1
2017-Nov-25 08:29N 46°12' W 123°49'0 0.0
2017-Nov-25 07:56N 46°12' W 123°49'0 0.0
2017-Nov-25 07:26N 46°12' W 123°49'0 0.0
2017-Nov-25 06:59N 46°12' W 123°49'0 0.0
2017-Nov-25 06:14N 46°12' W 123°49'0 0.0
2017-Nov-25 05:56N 46°12' W 123°49'0 0.0
2017-Nov-25 05:29N 46°12' W 123°49'0 0.0
2017-Nov-25 04:59N 46°12' W 123°49'0 0.0
2017-Nov-25 04:29N 46°12' W 123°49'0 0.0
2017-Nov-25 03:47N 46°12' W 123°49'0 0.0
2017-Nov-25 03:29N 46°12' W 123°49'0 0.0
2017-Nov-25 02:59N 46°12' W 123°49'0 0.0
2017-Nov-25 02:29N 46°12' W 123°49'0 0.0
2017-Nov-25 01:59N 46°12' W 123°49'0 0.0
2017-Nov-25 01:29N 46°12' W 123°49'0 0.1
2017-Nov-25 00:38N 46°12' W 123°49'0 0.2
2017-Nov-25 00:29N 46°12' W 123°49'0 0.3
2017-Nov-24 23:59N 46°12' W 123°48'0 0.0
2017-Nov-24 23:29N 46°12' W 123°48'0 0.1
2017-Nov-24 22:59N 46°12' W 123°48'0 0.0
2017-Nov-24 22:29N 46°12' W 123°48'0 0.1
2017-Nov-24 21:56N 46°12' W 123°48'0 0.0
2017-Nov-24 21:29N 46°12' W 123°48'0 0.0
2017-Nov-24 20:59N 46°12' W 123°48'0 0.2
2017-Nov-24 20:29N 46°12' W 123°49'0 0.1
2017-Nov-24 19:59N 46°12' W 123°49'0 0.1
2017-Nov-24 19:29N 46°12' W 123°49'0 0.1
2017-Nov-24 18:59N 46°12' W 123°49'0 0.0
2017-Nov-24 18:29N 46°12' W 123°49'0 0.0
2017-Nov-24 17:59N 46°12' W 123°49'0 0.0
2017-Nov-24 17:29N 46°12' W 123°49'0 0.0
2017-Nov-24 16:59N 46°12' W 123°49'0 0.0
2017-Nov-24 16:29N 46°12' W 123°49'0 0.0
2017-Nov-24 15:59N 46°12' W 123°49'0 0.0
2017-Nov-24 14:53N 46°12' W 123°49'0 0.0
2017-Nov-24 14:29N 46°12' W 123°49'0 0.2
2017-Nov-24 13:59N 46°12' W 123°49'0 0.2
2017-Nov-24 13:26N 46°12' W 123°48'0 0.1
2017-Nov-24 12:59N 46°12' W 123°48'0 0.1
2017-Nov-24 12:29N 46°12' W 123°48'0 0.0
2017-Nov-24 11:59N 46°12' W 123°48'0 0.1
2017-Nov-24 11:29N 46°12' W 123°48'0 0.0
2017-Nov-24 10:59N 46°12' W 123°48'0 0.0
2017-Nov-24 10:29N 46°12' W 123°48'0 0.0
2017-Nov-24 09:59N 46°12' W 123°48'0 0.0
2017-Nov-24 09:29N 46°12' W 123°48'0 0.2
2017-Nov-24 08:59N 46°12' W 123°48'0 0.1
2017-Nov-24 08:20N 46°12' W 123°48'0 0.1
2017-Nov-24 07:59N 46°12' W 123°49'0 0.1
2017-Nov-24 07:29N 46°12' W 123°49'0 0.1
2017-Nov-24 06:59N 46°12' W 123°49'0 0.1
2017-Nov-24 06:29N 46°12' W 123°49'0 0.1
2017-Nov-24 05:56N 46°12' W 123°49'0 0.1
2017-Nov-24 05:29N 46°12' W 123°49'0 0.0
2017-Nov-24 04:56N 46°12' W 123°49'0 0.0
2017-Nov-24 04:29N 46°12' W 123°49'0 0.0
2017-Nov-24 03:50N 46°12' W 123°49'0 0.0
2017-Nov-24 03:29N 46°12' W 123°49'0 0.1
2017-Nov-24 02:47N 46°12' W 123°49'0 0.0
2017-Nov-24 02:29N 46°12' W 123°49'0 0.0
2017-Nov-24 01:59N 46°12' W 123°49'0 0.0
2017-Nov-24 01:29N 46°12' W 123°49'0 0.0
2017-Nov-24 00:59N 46°12' W 123°49'0 0.3
2017-Nov-24 00:29N 46°12' W 123°48'0 0.3
2017-Nov-23 23:59N 46°12' W 123°48'0 0.0
2017-Nov-23 23:26N 46°12' W 123°48'0 0.1
2017-Nov-23 22:41N 46°12' W 123°48'0 0.0
2017-Nov-23 22:29N 46°12' W 123°48'0 0.1
2017-Nov-23 21:59N 46°12' W 123°48'0 0.0
2017-Nov-23 21:29N 46°12' W 123°48'0 0.0
2017-Nov-23 20:59N 46°12' W 123°48'0 0.0
2017-Nov-23 20:29N 46°12' W 123°48'0 0.0
2017-Nov-23 19:56N 46°12' W 123°48'0 0.0
2017-Nov-23 19:29N 46°12' W 123°48'0 0.2
2017-Nov-23 18:56N 46°12' W 123°48'0 0.2
2017-Nov-23 18:29N 46°12' W 123°49'0 0.1
2017-Nov-23 17:56N 46°12' W 123°49'0 0.1
2017-Nov-23 17:29N 46°12' W 123°49'0 0.1
2017-Nov-23 16:59N 46°12' W 123°49'0 0.0
2017-Nov-23 16:29N 46°12' W 123°49'0 0.1
2017-Nov-23 15:56N 46°12' W 123°49'0 0.1
2017-Nov-23 15:29N 46°12' W 123°49'0 0.1
2017-Nov-23 14:59N 46°12' W 123°49'0 0.0
2017-Nov-23 14:29N 46°12' W 123°49'0 0.0
2017-Nov-23 13:59N 46°12' W 123°49'0 0.2
2017-Nov-23 13:29N 46°12' W 123°48'0 0.2
2017-Nov-23 12:59N 46°12' W 123°48'0 0.0
2017-Nov-23 12:29N 46°12' W 123°48'0 0.0
2017-Nov-23 11:59N 46°12' W 123°48'0 0.0
2017-Nov-23 11:29N 46°12' W 123°48'0 0.0
2017-Nov-23 10:59N 46°12' W 123°48'0 0.0
2017-Nov-23 10:29N 46°12' W 123°48'0 0.0
2017-Nov-23 09:59N 46°12' W 123°48'0 0.0
2017-Nov-23 09:29N 46°12' W 123°48'0 0.0
2017-Nov-23 08:59N 46°12' W 123°48'0 0.0
2017-Nov-23 08:29N 46°12' W 123°48'0 0.0
2017-Nov-23 07:59N 46°12' W 123°48'0 0.1
2017-Nov-23 07:29N 46°12' W 123°48'0 0.2
2017-Nov-23 06:56N 46°12' W 123°48'0 0.2
2017-Nov-23 06:26N 46°12' W 123°49'0 0.1
2017-Nov-23 05:53N 46°12' W 123°49'0 0.0
2017-Nov-23 05:29N 46°12' W 123°49'0 0.0
2017-Nov-23 04:59N 46°12' W 123°49'0 0.0
2017-Nov-23 04:29N 46°12' W 123°49'0 0.1
2017-Nov-23 03:59N 46°12' W 123°49'0 0.0
2017-Nov-23 03:29N 46°12' W 123°49'0 0.0
2017-Nov-23 02:59N 46°12' W 123°49'0 0.1
2017-Nov-23 02:29N 46°12' W 123°49'0 0.1
2017-Nov-23 01:59N 46°12' W 123°49'1 1.4
2017-Nov-23 01:30N 46°12' W 123°49'4 7.9
2017-Nov-23 01:00N 46°11' W 123°55'510.7
2017-Nov-23 00:30N 46°15' W 124°01'510.5
2017-Nov-23 00:00N 46°14' W 124°08'7 8.7
2017-Nov-22 23:12N 46°13' W 124°18'2 7.6
2017-Nov-22 23:01N 46°14' W 124°19'3 6.1
2017-Nov-22 22:30N 46°17' W 124°22'2 4.9
2017-Nov-22 22:01N 46°19' W 124°23'2 3.8
2017-Nov-22 21:31N 46°21' W 124°22'3 4.4
2017-Nov-22 20:48N 46°19' W 124°25'1 4.1
2017-Nov-22 20:30N 46°18' W 124°27'2 3.9
2017-Nov-22 20:01N 46°16' W 124°28'2 3.9
2017-Nov-22 19:31N 46°15' W 124°30'  

Dump ship's entire track history